Time;durP1;ratioP1;P1;durP2;ratioP2;P2;SDS_P1;SDS_P2;PMS_P1;PMS_P2;Temp;Humidity;BMP_temperature;BMP_pressure;BME280_temperature;BME280_humidity;BME280_pressure;Samples;Min_cycle;Max_cycle;Signal;HPM_P1;HPM_P2
2023/05/03 00:00:22;;;;;;;0.83;0.83;;;8.60;99.90;;;;;;5053249;28;20172;-70
2023/05/03 00:02:48;;;;;;;0.50;0.50;;;7.70;99.90;;;;;;5053250;28;20182;-69
2023/05/03 00:05:13;;;;;;;2.40;2.30;;;8.20;99.90;;;;;;5053118;28;20197;-70
2023/05/03 00:07:43;;;;;;;0.87;0.87;;;8.30;99.90;;;;;;5052942;28;20637;-70
2023/05/03 00:10:14;;;;;;;0.90;0.82;;;8.30;99.90;;;;;;5053294;28;20249;-70
2023/05/03 00:12:41;;;;;;;0.90;0.90;;;8.40;99.90;;;;;;5053089;28;20213;-70
2023/05/03 00:15:09;;;;;;;0.95;0.95;;;7.90;99.90;;;;;;5052405;28;20247;-70
2023/05/03 00:17:36;;;;;;;1.08;0.98;;;7.70;99.90;;;;;;5052957;28;20185;-70
2023/05/03 00:20:03;;;;;;;0.88;0.52;;;7.60;99.90;;;;;;5053056;28;20570;-71
2023/05/03 00:22:28;;;;;;;0.55;0.55;;;7.80;99.90;;;;;;5052960;28;20174;-70
2023/05/03 00:24:55;;;;;;;2.17;2.00;;;8.30;99.90;;;;;;5052818;28;20206;-69
2023/05/03 00:27:21;;;;;;;2.28;2.20;;;7.50;99.90;;;;;;5052772;28;20170;-69
2023/05/03 00:29:47;;;;;;;0.80;0.80;;;;;;;;;;5053015;28;20213;-70
2023/05/03 00:32:12;;;;;;;0.77;0.77;;;7.50;99.90;;;;;;5052970;28;20191;-70
2023/05/03 00:34:38;;;;;;;3.93;1.57;;;7.70;99.90;;;;;;5052947;28;20956;-70
2023/05/03 00:37:04;;;;;;;0.50;0.50;;;7.60;99.90;;;;;;5052595;28;20184;-70
2023/05/03 00:39:30;;;;;;;2.88;1.45;;;8.00;99.90;;;;;;5052841;28;20566;-70
2023/05/03 00:41:57;;;;;;;1.10;1.10;;;7.80;99.90;;;;;;5052844;28;20260;-70
2023/05/03 00:44:23;;;;;;;0.77;0.77;;;7.40;99.90;;;;;;5052805;28;20642;-70
2023/05/03 00:46:49;;;;;;;0.80;0.80;;;7.70;99.90;;;;;;5052546;28;20188;-71
2023/05/03 00:49:15;;;;;;;1.15;1.15;;;8.10;99.90;;;;;;5052802;28;20188;-70
2023/05/03 00:51:41;;;;;;;0.83;0.83;;;7.90;99.90;;;;;;5052666;28;20223;-70
2023/05/03 00:54:08;;;;;;;3.05;2.85;;;7.80;99.90;;;;;;5052652;28;20178;-69
2023/05/03 00:56:34;;;;;;;0.90;0.90;;;7.80;99.90;;;;;;5052573;28;20224;-70
2023/05/03 00:59:01;;;;;;;1.15;1.05;;;7.80;99.90;;;;;;5052479;28;20171;-69
2023/05/03 01:01:28;;;;;;;2.22;0.95;;;7.90;99.90;;;;;;5052640;28;20200;-70
2023/05/03 01:03:53;;;;;;;1.25;1.25;;;7.90;99.90;;;;;;5052983;28;20165;-69
2023/05/03 01:06:37;;;;;;;0.50;0.50;;;7.80;99.90;;;;;;5052671;28;20200;-70
2023/05/03 01:09:30;;;;;;;0.40;0.40;;;7.70;99.90;;;;;;5052401;28;20169;-70
2023/05/03 01:12:13;;;;;;;0.93;0.60;;;7.70;99.90;;;;;;5052596;28;20268;-70
2023/05/03 01:14:45;;;;;;;1.73;1.63;;;8.00;99.90;;;;;;5052391;28;20594;-71
2023/05/03 01:17:17;;;;;;;2.85;1.63;;;7.40;99.90;;;;;;5052331;28;20167;-69
2023/05/03 01:19:50;;;;;;;1.67;1.30;;;7.90;99.90;;;;;;5052510;28;20633;-71
2023/05/03 01:22:25;;;;;;;0.93;0.93;;;7.90;99.90;;;;;;5052653;28;20173;-70
2023/05/03 01:25:06;;;;;;;1.05;1.00;;;7.50;99.90;;;;;;5052297;28;20200;-70
2023/05/03 01:27:32;;;;;;;1.60;1.60;;;7.50;99.90;;;;;;5053667;28;20178;-69
2023/05/03 01:29:58;;;;;;;1.40;1.37;;;7.70;99.90;;;;;;5056034;28;20177;-71
2023/05/03 01:32:35;;;;;;;0.50;0.50;;;7.60;99.90;;;;;;5054677;28;20495;-70
2023/05/03 01:35:07;;;;;;;1.20;1.10;;;7.20;99.90;;;;;;5055931;28;20220;-70
2023/05/03 01:37:34;;;;;;;2.08;1.20;;;7.10;99.90;;;;;;5055813;28;20177;-70
2023/05/03 01:40:06;;;;;;;0.90;0.90;;;7.50;99.90;;;;;;5055688;28;20197;-69
2023/05/03 01:42:36;;;;;;;0.75;0.75;;;7.10;99.90;;;;;;5055738;28;20209;-70
2023/05/03 01:45:03;;;;;;;0.52;0.50;;;7.10;99.90;;;;;;5055990;28;20560;-71
2023/05/03 01:47:29;;;;;;;4.72;2.65;;;7.10;99.90;;;;;;5055467;28;20174;-69
2023/05/03 01:49:55;;;;;;;1.20;0.77;;;7.50;99.90;;;;;;5055472;28;20192;-70
2023/05/03 01:52:21;;;;;;;0.53;0.53;;;7.50;99.90;;;;;;5055833;28;20678;-70
2023/05/03 01:54:47;;;;;;;0.55;0.55;;;7.90;99.90;;;;;;5055689;28;20539;-71
2023/05/03 01:57:13;;;;;;;0.70;0.70;;;7.80;99.90;;;;;;5055545;28;20180;-70
2023/05/03 01:59:38;;;;;;;1.93;1.83;;;7.20;99.90;;;;;;5055537;28;20247;-70
2023/05/03 02:02:04;;;;;;;6.00;1.07;;;7.80;99.90;;;;;;5055284;28;20203;-70
2023/05/03 02:04:30;;;;;;;0.90;0.60;;;6.90;99.90;;;;;;5055416;28;20625;-70
2023/05/03 02:06:55;;;;;;;0.87;0.87;;;7.40;99.90;;;;;;5055559;28;20174;-71
2023/05/03 02:09:21;;;;;;;1.00;1.00;;;7.40;99.90;;;;;;5055413;28;20701;-70
2023/05/03 02:11:47;;;;;;;2.30;2.13;;;7.30;99.90;;;;;;5055145;28;20200;-70
2023/05/03 02:14:13;;;;;;;1.10;1.10;;;;;;;;;;5055280;28;20898;-70
2023/05/03 02:16:39;;;;;;;1.63;1.52;;;7.00;99.90;;;;;;5055044;28;20214;-70
2023/05/03 02:19:05;;;;;;;0.80;0.80;;;7.60;99.90;;;;;;5054896;28;20704;-70
2023/05/03 02:21:33;;;;;;;0.55;0.55;;;7.40;99.90;;;;;;5055042;28;20172;-69
2023/05/03 02:23:59;;;;;;;1.77;1.67;;;7.50;99.90;;;;;;5054951;28;20185;-71
2023/05/03 02:26:25;;;;;;;2.25;2.15;;;7.80;99.90;;;;;;5054916;28;20216;-69
2023/05/03 02:28:51;;;;;;;1.08;1.08;;;7.40;99.90;;;;;;5054845;28;20651;-70
2023/05/03 02:31:16;;;;;;;1.83;1.07;;;7.50;99.90;;;;;;5054753;28;20179;-70
2023/05/03 02:33:42;;;;;;;0.83;0.83;;;7.40;99.90;;;;;;5054742;28;20237;-69
2023/05/03 02:36:08;;;;;;;0.83;0.60;;;7.30;99.90;;;;;;5055137;28;20264;-70
2023/05/03 02:38:33;;;;;;;5.67;1.93;;;6.90;99.90;;;;;;5054321;28;20177;-70
2023/05/03 02:40:59;;;;;;;2.63;1.80;;;7.30;99.90;;;;;;5054679;28;20184;-70
2023/05/03 02:43:25;;;;;;;1.03;1.03;;;7.40;99.90;;;;;;5054561;28;20281;-70
2023/05/03 02:45:50;;;;;;;1.80;1.67;;;7.30;99.90;;;;;;5054545;28;20722;-69
2023/05/03 02:48:16;;;;;;;1.27;1.27;;;7.30;99.90;;;;;;5054289;28;20204;-71
2023/05/03 02:50:42;;;;;;;2.53;2.03;;;7.90;99.90;;;;;;5054450;28;20276;-70
2023/05/03 02:53:08;;;;;;;3.88;3.10;;;7.50;99.90;;;;;;5054349;28;20560;-70
2023/05/03 02:55:33;;;;;;;2.20;2.00;;;7.40;99.90;;;;;;5054385;28;20188;-69
2023/05/03 02:57:59;;;;;;;1.17;1.10;;;7.20;99.90;;;;;;5054180;28;20227;-70
2023/05/03 03:00:25;;;;;;;1.15;1.15;;;7.60;99.90;;;;;;5054170;28;20180;-71
2023/05/03 03:02:51;;;;;;;2.40;2.30;;;6.90;99.90;;;;;;5054434;28;20177;-69
2023/05/03 03:05:17;;;;;;;0.40;0.40;;;7.30;99.90;;;;;;5054216;28;20189;-69
2023/05/03 03:07:42;;;;;;;0.80;0.80;;;6.90;99.90;;;;;;5053941;28;20211;-70
2023/05/03 03:10:08;;;;;;;0.40;0.40;;;7.00;99.90;;;;;;5054208;28;20406;-70
2023/05/03 03:12:35;;;;;;;1.05;1.02;;;6.90;99.90;;;;;;5054168;28;20210;-69
2023/05/03 03:15:01;;;;;;;1.75;1.65;;;7.40;99.90;;;;;;5053516;28;20192;-69
2023/05/03 03:17:27;;;;;;;0.70;0.50;;;7.40;99.90;;;;;;5054043;28;20693;-69
2023/05/03 03:19:52;;;;;;;0.70;0.70;;;6.90;99.90;;;;;;5054009;28;20168;-70
2023/05/03 03:22:18;;;;;;;0.60;0.60;;;7.30;99.90;;;;;;5053959;28;20263;-69
2023/05/03 03:24:44;;;;;;;0.40;0.40;;;7.40;99.90;;;;;;5053835;28;20190;-70
2023/05/03 03:27:09;;;;;;;3.00;1.10;;;7.40;99.90;;;;;;5053806;28;20174;-69
2023/05/03 03:29:35;;;;;;;0.40;0.40;;;7.30;99.90;;;;;;5053654;28;20527;-69
2023/05/03 03:32:01;;;;;;;1.67;1.57;;;7.70;99.90;;;;;;5053671;28;20200;-70
2023/05/03 03:34:26;;;;;;;1.97;1.83;;;7.00;99.90;;;;;;5053653;28;20162;-69
2023/05/03 03:36:52;;;;;;;3.77;2.77;;;6.70;99.90;;;;;;5053486;28;20176;-69
2023/05/03 03:39:18;;;;;;;0.80;0.77;;;6.60;99.90;;;;;;5053674;28;20538;-69
2023/05/03 03:41:43;;;;;;;4.47;1.70;;;7.50;99.90;;;;;;5053611;28;20269;-70
2023/05/03 03:44:09;;;;;;;1.90;1.80;;;7.30;99.90;;;;;;5053801;28;20256;-70
2023/05/03 03:46:34;;;;;;;2.33;2.23;;;7.40;99.90;;;;;;5053391;28;20222;-70
2023/05/03 03:49:00;;;;;;;1.57;1.47;;;7.20;99.90;;;;;;5053058;28;20532;-70
2023/05/03 03:51:26;;;;;;;1.67;1.17;;;7.40;99.90;;;;;;5052916;28;20519;-70
2023/05/03 03:53:52;;;;;;;1.37;1.30;;;7.00;99.90;;;;;;5053513;28;20172;-69
2023/05/03 03:56:17;;;;;;;10.30;2.30;;;6.90;99.90;;;;;;5053070;28;20218;-71
2023/05/03 03:58:43;;;;;;;0.47;0.47;;;7.40;99.90;;;;;;5053025;28;20409;-69
2023/05/03 04:01:09;;;;;;;6.43;2.07;;;6.80;99.90;;;;;;5053181;28;20174;-70
2023/05/03 04:03:35;;;;;;;1.30;1.20;;;7.20;99.90;;;;;;5053363;28;20206;-69
2023/05/03 04:06:00;;;;;;;0.90;0.90;;;7.20;99.90;;;;;;5053339;28;20228;-69
2023/05/03 04:08:26;;;;;;;2.60;1.70;;;7.10;99.90;;;;;;5052909;28;20173;-70
2023/05/03 04:10:52;;;;;;;5.20;1.03;;;7.20;99.90;;;;;;5052983;28;20173;-69
2023/05/03 04:13:17;;;;;;;3.33;1.53;;;6.80;99.90;;;;;;5053381;28;20202;-70
2023/05/03 04:15:43;;;;;;;25.17;2.83;;;6.80;99.90;;;;;;5052996;28;20690;-71
2023/05/03 04:18:08;;;;;;;1.37;1.27;;;7.20;99.90;;;;;;5052929;28;20167;-70
2023/05/03 04:20:35;;;;;;;0.43;0.43;;;6.80;99.90;;;;;;5053125;28;20654;-70
2023/05/03 04:23:01;;;;;;;0.70;0.70;;;7.60;99.90;;;;;;5053175;28;20168;-71
2023/05/03 04:25:26;;;;;;;1.70;0.60;;;6.90;99.90;;;;;;5052825;28;20279;-69
2023/05/03 04:27:52;;;;;;;4.07;1.97;;;7.50;99.90;;;;;;5052810;28;20220;-70
2023/05/03 04:30:18;;;;;;;3.10;2.93;;;6.70;99.90;;;;;;5052999;28;20179;-70
2023/05/03 04:32:44;;;;;;;2.58;2.47;;;6.80;99.90;;;;;;5052971;28;20266;-69
2023/05/03 04:35:11;;;;;;;2.57;2.37;;;6.80;99.90;;;;;;5052836;28;20188;-70
2023/05/03 04:37:37;;;;;;;2.40;2.28;;;6.80;99.90;;;;;;5052668;28;20663;-70
2023/05/03 04:40:07;;;;;;;4.85;1.35;;;7.30;99.90;;;;;;5052986;28;20549;-70
2023/05/03 04:42:33;;;;;;;2.95;2.25;;;6.90;99.90;;;;;;5053162;28;20175;-70
2023/05/03 04:44:58;;;;;;;2.77;2.20;;;7.20;99.90;;;;;;5052687;28;20684;-69
2023/05/03 04:47:24;;;;;;;2.63;2.43;;;7.20;99.90;;;;;;5052634;28;20183;-70
2023/05/03 04:49:50;;;;;;;4.43;2.50;;;7.10;99.90;;;;;;5052669;28;20188;-70
2023/05/03 04:52:16;;;;;;;2.28;1.98;;;7.20;99.90;;;;;;5052727;28;20201;-70
2023/05/03 04:54:41;;;;;;;2.17;1.60;;;7.20;99.90;;;;;;5052610;28;20201;-70
2023/05/03 04:57:09;;;;;;;1.03;1.00;;;7.40;99.90;;;;;;5052429;28;20169;-70
2023/05/03 04:59:34;;;;;;;1.25;1.15;;;7.30;99.90;;;;;;5052777;28;20257;-70
2023/05/03 05:02:00;;;;;;;0.80;0.80;;;8.00;99.90;;;;;;5055162;28;20571;-70
2023/05/03 05:04:26;;;;;;;15.23;0.93;;;9.10;99.90;;;;;;5056510;28;20174;-70
2023/05/03 05:06:52;;;;;;;5.57;4.23;;;9.10;99.90;;;;;;5056209;28;20175;-70
2023/05/03 05:09:26;;;;;;;3.50;2.50;;;10.00;99.90;;;;;;5056502;28;20177;-71
2023/05/03 05:11:51;;;;;;;4.03;3.70;;;11.10;99.90;;;;;;5056457;28;20505;-71
2023/05/03 05:14:17;;;;;;;3.03;2.80;;;12.80;99.90;;;;;;5056211;28;20401;-70
2023/05/03 05:16:43;;;;;;;2.13;1.97;;;13.00;99.90;;;;;;5056049;28;20306;-71
2023/05/03 05:19:09;;;;;;;3.10;2.97;;;13.70;99.90;;;;;;5056304;28;20169;-71
2023/05/03 05:21:35;;;;;;;1.20;1.07;;;14.60;99.90;;;;;;5056237;28;20176;-70
2023/05/03 05:24:00;;;;;;;1.80;1.10;;;15.50;96.40;;;;;;5056108;28;20522;-71
2023/05/03 05:26:27;;;;;;;3.87;2.30;;;16.50;94.10;;;;;;5055950;28;20190;-70
2023/05/03 05:28:53;;;;;;;4.17;2.07;;;17.60;90.20;;;;;;5055911;28;20177;-71
2023/05/03 05:31:18;;;;;;;1.60;1.50;;;18.40;84.70;;;;;;5056043;28;20456;-70
2023/05/03 05:33:44;;;;;;;0.70;0.70;;;19.30;81.10;;;;;;5055979;28;20520;-71
2023/05/03 05:36:10;;;;;;;13.23;1.60;;;20.10;76.10;;;;;;5055776;28;20190;-71
2023/05/03 05:38:35;;;;;;;0.60;0.60;;;20.70;71.60;;;;;;5055635;28;20859;-70
2023/05/03 05:41:01;;;;;;;1.70;1.37;;;21.40;69.60;;;;;;5055774;28;20163;-71
2023/05/03 05:43:27;;;;;;;1.63;1.53;;;21.90;66.20;;;;;;5055883;28;20205;-72
2023/05/03 05:45:53;;;;;;;1.00;1.00;;;22.40;61.50;;;;;;5055511;28;20449;-71
2023/05/03 05:48:18;;;;;;;1.40;1.30;;;23.00;61.50;;;;;;5055453;28;20201;-72
2023/05/03 05:50:44;;;;;;;1.27;1.17;;;23.50;57.70;;;;;;5055399;28;20198;-72
2023/05/03 05:53:10;;;;;;;2.37;1.60;;;23.80;56.60;;;;;;5055477;28;20194;-71
2023/05/03 05:55:36;;;;;;;2.60;1.90;;;24.10;56.70;;;;;;5055343;28;20443;-72
2023/05/03 05:58:02;;;;;;;1.00;1.00;;;24.50;56.20;;;;;;5055298;28;20168;-72
2023/05/03 06:00:29;;;;;;;1.80;1.40;;;25.10;54.60;;;;;;5055402;28;20569;-71
2023/05/03 06:02:54;;;;;;;3.60;1.80;;;25.70;53.20;;;;;;5055418;28;20649;-72
2023/05/03 06:05:20;;;;;;;0.93;0.93;;;26.20;51.80;;;;;;5055131;28;20425;-71
2023/05/03 06:07:46;;;;;;;2.20;1.60;;;26.30;49.60;;;;;;5055043;28;20180;-72
2023/05/03 06:10:12;;;;;;;2.03;1.60;;;26.40;49.50;;;;;;5055227;28;20178;-72
2023/05/03 06:12:37;;;;;;;2.53;2.30;;;26.20;47.90;;;;;;5054344;28;20331;-72
2023/05/03 06:15:03;;;;;;;1.67;1.40;;;25.20;47.70;;;;;;5055039;28;20269;-71
2023/05/03 06:17:29;;;;;;;1.93;1.83;;;24.10;48.80;;;;;;5054907;28;20215;-71
2023/05/03 06:19:55;;;;;;;2.40;2.00;;;23.70;51.90;;;;;;5055097;28;20403;-71
2023/05/03 06:22:21;;;;;;;3.13;2.77;;;23.10;52.40;;;;;;5054950;28;20401;-72
2023/05/03 06:24:47;;;;;;;1.63;1.53;;;22.30;53.60;;;;;;5053533;28;21039;-71
2023/05/03 06:27:12;;;;;;;2.50;1.63;;;21.80;54.60;;;;;;5054944;28;20261;-70
2023/05/03 06:29:38;;;;;;;3.50;1.90;;;21.50;55.20;;;;;;5053555;28;20173;-71
2023/05/03 06:32:04;;;;;;;1.20;1.10;;;19.70;57.10;;;;;;5055023;28;20202;-71
2023/05/03 06:34:29;;;;;;;1.83;1.73;;;18.10;89.40;;;;;;5054872;28;20180;-71
2023/05/03 06:36:55;;;;;;;1.20;1.10;;;17.90;62.10;;;;;;5054710;28;20404;-71
2023/05/03 06:39:20;;;;;;;2.00;1.70;;;18.00;64.00;;;;;;5054699;28;20623;-71
2023/05/03 06:41:46;;;;;;;2.63;2.40;;;18.30;63.70;;;;;;5054689;28;20204;-71
2023/05/03 06:44:12;;;;;;;1.53;1.43;;;18.60;62.90;;;;;;5054933;28;20166;-71
2023/05/03 06:46:38;;;;;;;1.93;1.77;;;18.60;60.80;;;;;;5054472;28;20685;-71
2023/05/03 06:49:03;;;;;;;1.90;1.43;;;18.40;64.00;;;;;;5054347;28;20195;-71
2023/05/03 06:51:31;;;;;;;1.33;1.10;;;17.70;67.60;;;;;;5054594;28;20182;-70
2023/05/03 06:54:05;;;;;;;1.47;1.37;;;17.00;67.50;;;;;;5054368;28;20172;-70
2023/05/03 06:56:32;;;;;;;1.13;1.13;;;16.90;68.80;;;;;;5054415;28;20783;-71
2023/05/03 06:58:59;;;;;;;1.00;1.00;;;16.80;70.40;;;;;;5054272;28;20405;-70
2023/05/03 07:01:24;;;;;;;2.70;2.50;;;16.10;72.60;;;;;;5054333;28;20405;-71
2023/05/03 07:03:50;;;;;;;2.13;1.93;;;16.00;72.70;;;;;;5054149;28;20411;-71
2023/05/03 07:06:17;;;;;;;1.60;1.00;;;15.80;71.20;;;;;;5054077;28;20189;-70
2023/05/03 07:08:43;;;;;;;1.17;1.07;;;15.80;70.90;;;;;;5053973;28;20540;-71
2023/05/03 07:11:09;;;;;;;1.13;1.13;;;15.50;69.40;;;;;;5054084;28;20487;-70
2023/05/03 07:13:35;;;;;;;1.50;1.10;;;15.50;70.70;;;;;;5054157;28;20552;-70
2023/05/03 07:16:00;;;;;;;1.83;1.70;;;15.70;71.70;;;;;;5053814;28;20421;-70
2023/05/03 07:18:26;;;;;;;3.97;1.67;;;16.10;69.20;;;;;;5053784;28;20225;-70
2023/05/03 07:20:52;;;;;;;1.57;1.47;;;16.50;68.30;;;;;;5054102;28;20214;-71
2023/05/03 07:23:17;;;;;;;0.60;0.60;;;16.30;67.10;;;;;;5054030;28;20179;-70
2023/05/03 07:25:44;;;;;;;1.30;1.00;;;16.40;67.10;;;;;;5053676;28;20245;-71
2023/05/03 07:28:10;;;;;;;0.60;0.60;;;16.90;67.60;;;;;;5053638;28;20195;-71
2023/05/03 07:30:36;;;;;;;1.77;1.67;;;17.60;62.70;;;;;;5053662;28;20891;-71
2023/05/03 07:33:02;;;;;;;2.30;2.10;;;18.30;62.30;;;;;;5053575;28;20204;-70
2023/05/03 07:35:28;;;;;;;0.80;0.77;;;19.10;60.60;;;;;;5053694;28;20322;-71
2023/05/03 07:37:53;;;;;;;0.97;0.80;;;20.10;58.00;;;;;;5053476;28;20214;-72
2023/05/03 07:40:19;;;;;;;0.83;0.80;;;21.00;55.90;;;;;;5053656;28;20404;-71
2023/05/03 07:42:45;;;;;;;1.90;0.87;;;21.60;53.30;;;;;;5053680;28;20688;-71
2023/05/03 07:45:11;;;;;;;1.17;1.07;;;21.40;54.40;;;;;;5053487;28;20194;-71
2023/05/03 07:47:38;;;;;;;1.00;1.00;;;21.80;52.90;;;;;;5053207;28;20527;-71
2023/05/03 07:50:05;;;;;;;1.27;1.03;;;21.70;52.60;;;;;;5053258;28;20551;-71
2023/05/03 07:52:38;;;;;;;0.80;0.80;;;21.90;54.50;;;;;;5053616;28;20451;-71
2023/05/03 07:55:06;;;;;;;1.10;1.10;;;22.60;52.40;;;;;;5053256;28;20455;-71
2023/05/03 07:57:32;;;;;;;2.00;1.60;;;23.70;51.60;;;;;;5053188;28;20409;-72
2023/05/03 07:59:57;;;;;;;0.70;0.70;;;24.70;48.80;;;;;;5051971;28;20783;-71
2023/05/03 08:02:23;;;;;;;2.50;1.80;;;25.30;47.70;;;;;;5053036;28;20397;-71
2023/05/03 08:04:48;;;;;;;1.40;1.30;;;25.20;47.30;;;;;;5053291;28;20613;-71
2023/05/03 08:07:14;;;;;;;3.03;1.50;;;24.80;46.80;;;;;;5052985;28;20257;-71
2023/05/03 08:09:40;;;;;;;1.60;0.73;;;;;;;;;;5053268;28;20198;-71
2023/05/03 08:12:06;;;;;;;1.77;1.67;;;24.40;46.10;;;;;;5053184;28;20284;-72
2023/05/03 08:14:32;;;;;;;1.30;1.20;;;24.10;67.00;;;;;;5053120;28;20412;-71
2023/05/03 08:17:03;;;;;;;0.80;0.80;;;23.90;46.80;;;;;;5051571;28;20428;-72
2023/05/03 08:19:29;;;;;;;0.97;0.90;;;23.50;47.80;;;;;;5053138;28;20177;-72
2023/05/03 08:21:55;;;;;;;1.37;0.90;;;23.20;47.50;;;;;;5053350;28;20405;-71
2023/05/03 08:24:20;;;;;;;0.70;0.70;;;23.10;61.90;;;;;;5052991;28;20412;-72
2023/05/03 08:26:47;;;;;;;2.00;1.17;;;23.20;47.30;;;;;;5052847;28;20177;-71
2023/05/03 08:29:13;;;;;;;0.87;0.87;;;22.60;48.00;;;;;;5053601;28;20181;-71
2023/05/03 08:31:39;;;;;;;1.23;0.80;;;21.90;47.90;;;;;;5052824;28;20398;-71
2023/05/03 08:34:06;;;;;;;1.60;1.50;;;21.00;51.10;;;;;;5052911;28;20492;-71
2023/05/03 08:36:33;;;;;;;1.13;1.13;;;20.60;53.10;;;;;;5036493;28;20792;-71
2023/05/03 08:39:00;;;;;;;0.73;0.60;;;21.50;50.40;;;;;;5056945;28;20887;-71
2023/05/03 08:41:27;;;;;;;0.83;0.83;;;22.90;47.90;;;;;;5057001;28;20432;-71
2023/05/03 08:43:54;;;;;;;1.13;0.90;;;23.60;45.80;;;;;;5056808;28;20877;-72
2023/05/03 08:46:20;;;;;;;2.37;1.63;;;24.00;46.20;;;;;;5056710;28;20482;-72
2023/05/03 08:48:48;;;;;;;1.67;1.23;;;24.10;46.50;;;;;;5056510;28;20409;-71
2023/05/03 08:51:15;;;;;;;0.80;0.80;;;24.00;46.30;;;;;;5056852;28;20409;-71
2023/05/03 08:53:41;;;;;;;0.93;0.93;;;22.30;46.90;;;;;;5056887;28;20978;-72
2023/05/03 08:56:11;;;;;;;1.10;1.10;;;21.90;45.80;;;;;;5056435;28;20428;-71
2023/05/03 08:58:37;;;;;;;0.93;0.90;;;22.20;47.60;;;;;;5056492;28;20172;-71
2023/05/03 09:01:08;;;;;;;0.83;0.83;;;22.40;49.70;;;;;;5056565;28;20484;-72
2023/05/03 09:03:34;;;;;;;0.70;0.70;;;23.60;49.00;;;;;;5056598;28;20412;-72
2023/05/03 09:06:01;;;;;;;1.43;0.90;;;25.20;46.00;;;;;;5056390;28;20478;-72
2023/05/03 09:08:30;;;;;;;0.87;0.87;;;26.60;43.60;;;;;;5056195;28;20448;-72
2023/05/03 09:10:56;;;;;;;0.60;0.60;;;27.30;41.10;;;;;;5056268;28;20451;-72
2023/05/03 09:13:31;;;;;;;0.90;0.70;;;26.70;42.30;;;;;;5056667;28;20452;-72
2023/05/03 09:15:57;;;;;;;1.90;0.80;;;26.90;40.60;;;;;;5056203;28;20553;-72
2023/05/03 09:18:23;;;;;;;1.60;1.50;;;27.30;40.00;;;;;;5056160;28;20487;-72
2023/05/03 09:20:50;;;;;;;0.67;0.67;;;26.60;40.10;;;;;;5056310;28;20252;-71
2023/05/03 09:23:43;;;;;;;1.90;1.57;;;24.70;41.90;;;;;;5056178;28;20451;-71
2023/05/03 09:26:08;;;;;;;0.97;0.70;;;24.00;44.60;;;;;;5055903;28;20452;-72
2023/05/03 09:28:41;;;;;;;1.07;1.07;;;24.20;44.20;;;;;;5055978;28;20763;-71
2023/05/03 09:31:08;;;;;;;0.90;0.80;;;24.80;43.70;;;;;;5056142;28;20536;-72
2023/05/03 09:33:33;;;;;;;1.20;1.00;;;25.30;42.00;;;;;;5055996;28;20944;-72
2023/05/03 09:36:04;;;;;;;1.10;0.90;;;25.50;42.70;;;;;;5055810;28;20429;-71
2023/05/03 09:38:32;;;;;;;1.57;1.23;;;24.80;41.60;;;;;;5055842;28;20166;-72
2023/05/03 09:40:58;;;;;;;1.43;1.03;;;24.70;42.80;;;;;;5055711;28;20442;-71
2023/05/03 09:43:24;;;;;;;1.13;0.97;;;24.70;42.00;;;;;;5055745;28;20498;-71
2023/05/03 09:45:50;;;;;;;0.70;0.70;;;24.20;42.00;;;;;;5055632;28;20627;-71
2023/05/03 09:48:17;;;;;;;0.53;0.53;;;23.70;43.20;;;;;;5054206;28;20427;-72
2023/05/03 09:50:43;;;;;;;1.23;1.20;;;23.30;45.50;;;;;;5055723;28;20489;-72
2023/05/03 09:53:09;;;;;;;1.00;0.80;;;23.90;43.50;;;;;;5055511;28;20509;-72
2023/05/03 09:55:39;;;;;;;0.73;0.73;;;24.40;43.30;;;;;;5055445;28;20277;-71
2023/05/03 09:58:06;;;;;;;0.80;0.80;;;24.90;43.50;;;;;;5055454;28;20220;-72
2023/05/03 10:00:40;;;;;;;1.13;1.13;;;24.90;42.20;;;;;;5055493;28;20379;-71
2023/05/03 10:03:08;;;;;;;0.87;0.87;;;25.00;42.20;;;;;;5055426;28;20878;-72
2023/05/03 10:05:48;;;;;;;1.43;1.07;;;25.00;42.60;;;;;;5055475;28;20424;-72
2023/05/03 10:08:36;;;;;;;1.10;1.00;;;25.20;41.90;;;;;;5055445;28;20512;-72
2023/05/03 10:11:03;;;;;;;1.10;1.00;;;25.30;43.10;;;;;;5055168;28;20375;-72
2023/05/03 10:13:30;;;;;;;0.77;0.77;;;25.20;42.20;;;;;;5055184;28;20476;-72
2023/05/03 10:16:04;;;;;;;0.77;0.77;;;24.80;42.30;;;;;;5055221;28;20470;-70
2023/05/03 10:18:32;;;;;;;1.00;0.60;;;24.30;42.30;;;;;;5055248;28;20379;-72
2023/05/03 10:21:05;;;;;;;0.93;0.80;;;24.60;43.20;;;;;;5055076;28;20493;-72
2023/05/03 10:23:30;;;;;;;1.17;1.00;;;24.70;44.20;;;;;;5055347;28;20375;-72
2023/05/03 10:26:10;;;;;;;1.57;1.47;;;24.80;43.30;;;;;;5054901;28;20411;-71
2023/05/03 10:28:38;;;;;;;0.50;0.50;;;24.40;43.00;;;;;;5054915;28;20173;-71
2023/05/03 10:31:04;;;;;;;1.63;0.80;;;24.40;43.60;;;;;;5054913;28;20376;-72
2023/05/03 10:33:33;;;;;;;5.80;1.13;;;25.10;43.80;;;;;;5055022;28;20419;-71
2023/05/03 10:36:05;;;;;;;1.27;0.93;;;24.80;43.80;;;;;;5054772;28;20737;-72
2023/05/03 10:38:31;;;;;;;1.07;0.97;;;25.00;43.70;;;;;;5054805;28;20374;-72
2023/05/03 10:40:58;;;;;;;1.73;1.23;;;25.00;42.00;;;;;;5054717;28;20382;-71
2023/05/03 10:43:30;;;;;;;1.40;1.37;;;24.40;41.20;;;;;;5054746;28;20425;-71
2023/05/03 10:45:57;;;;;;;1.70;0.87;;;23.80;42.60;;;;;;5054548;28;20416;-71
2023/05/03 10:48:23;;;;;;;0.60;0.60;;;23.20;43.50;;;;;;5054376;28;20455;-71
2023/05/03 10:50:49;;;;;;;0.80;0.80;;;22.70;45.80;;;;;;5054411;28;20843;-71
2023/05/03 10:53:39;;;;;;;1.10;1.10;;;22.40;46.20;;;;;;5054362;28;20248;-71
2023/05/03 10:56:14;;;;;;;0.70;0.70;;;21.40;43.40;;;;;;5054385;28;20447;-72
2023/05/03 10:58:47;;;;;;;0.57;0.50;;;21.30;44.80;;;;;;5054045;28;20753;-71
2023/05/03 11:01:17;;;;;;;1.77;1.60;;;21.10;46.50;;;;;;5054451;28;20456;-71
2023/05/03 11:03:43;;;;;;;1.20;1.10;;;21.10;48.40;;;;;;5054282;28;20978;-71
2023/05/03 11:06:09;;;;;;;0.77;0.73;;;21.00;45.80;;;;;;5054149;28;20460;-72
2023/05/03 11:08:37;;;;;;;0.60;0.50;;;20.70;46.50;;;;;;5053994;28;20174;-72
2023/05/03 11:11:08;;;;;;;1.47;1.37;;;20.60;46.90;;;;;;5054301;28;20204;-72
2023/05/03 11:13:35;;;;;;;1.03;0.90;;;20.00;46.90;;;;;;5054186;28;20505;-71
2023/05/03 11:16:02;;;;;;;0.60;0.60;;;19.70;48.10;;;;;;5054024;28;20417;-71
2023/05/03 11:18:27;;;;;;;0.87;0.83;;;19.60;49.30;;;;;;5053831;28;20915;-71
2023/05/03 11:20:53;;;;;;;0.63;0.63;;;19.60;48.50;;;;;;5054059;28;20487;-71
2023/05/03 11:23:27;;;;;;;1.63;0.70;;;19.40;49.00;;;;;;5053765;28;20185;-71
2023/05/03 11:25:54;;;;;;;0.60;0.60;;;19.10;49.50;;;;;;5053801;28;20188;-72
2023/05/03 11:28:20;;;;;;;1.40;0.50;;;18.70;53.50;;;;;;5053621;28;20408;-72
2023/05/03 11:30:46;;;;;;;0.80;0.80;;;18.90;51.20;;;;;;5053807;28;20432;-71
2023/05/03 11:33:11;;;;;;;0.60;0.60;;;18.70;49.00;;;;;;5053751;28;20477;-71
2023/05/03 11:35:38;;;;;;;0.97;0.83;;;18.80;49.90;;;;;;5053538;28;20549;-71
2023/05/03 11:38:04;;;;;;;0.60;0.60;;;19.10;50.70;;;;;;5053392;28;20177;-70
2023/05/03 11:40:30;;;;;;;0.83;0.83;;;19.30;48.50;;;;;;5053648;28;20740;-71
2023/05/03 11:42:59;;;;;;;1.10;1.00;;;19.00;49.70;;;;;;5053695;28;20542;-71
2023/05/03 11:45:28;;;;;;;1.23;1.23;;;18.80;50.80;;;;;;5053416;28;20430;-71
2023/05/03 11:47:54;;;;;;;1.00;1.00;;;18.60;49.80;;;;;;5053358;28;20407;-71
2023/05/03 11:50:44;;;;;;;0.50;0.50;;;18.40;50.70;;;;;;5053283;28;20927;-71
2023/05/03 11:53:12;;;;;;;1.10;1.10;;;18.30;49.50;;;;;;5052614;28;20503;-71
2023/05/03 11:55:42;;;;;;;0.80;0.80;;;18.60;51.80;;;;;;5053302;28;20425;-72
2023/05/03 11:58:12;;;;;;;1.07;0.97;;;19.00;52.90;;;;;;5053326;28;20475;-71
2023/05/03 12:00:38;;;;;;;0.80;0.80;;;19.40;50.90;;;;;;5053456;28;20910;-72
2023/05/03 12:03:07;;;;;;;1.27;1.17;;;19.30;50.80;;;;;;5053342;28;20981;-71
2023/05/03 12:05:32;;;;;;;1.23;1.13;;;19.30;52.30;;;;;;5053315;28;20521;-72
2023/05/03 12:07:58;;;;;;;1.43;0.73;;;19.10;48.60;;;;;;5053172;28;20443;-71
2023/05/03 12:10:31;;;;;;;0.83;0.83;;;18.80;47.90;;;;;;5052732;28;20179;-71
2023/05/03 12:12:58;;;;;;;9.50;1.23;;;18.80;51.40;;;;;;5053304;28;20546;-71
2023/05/03 12:15:30;;;;;;;0.70;0.67;;;19.10;53.90;;;;;;5053075;28;20425;-71
2023/05/03 12:17:58;;;;;;;1.60;1.50;;;19.30;53.60;;;;;;5052970;28;20419;-71
2023/05/03 12:20:25;;;;;;;0.83;0.60;;;19.20;51.80;;;;;;5053411;28;20529;-71
2023/05/03 12:22:53;;;;;;;5.40;0.80;;;19.10;53.10;;;;;;5053273;28;20432;-72
2023/05/03 12:25:20;;;;;;;0.70;0.70;;;19.30;53.80;;;;;;5053170;28;20431;-71
2023/05/03 12:27:46;;;;;;;0.70;0.70;;;19.30;51.30;;;;;;5053183;28;20408;-71
2023/05/03 12:30:12;;;;;;;0.70;0.50;;;19.00;48.50;;;;;;5053254;28;20413;-71
2023/05/03 12:32:38;;;;;;;1.07;0.83;;;18.80;50.00;;;;;;5053213;28;20204;-71
2023/05/03 12:35:10;;;;;;;0.63;0.63;;;18.50;51.00;;;;;;5053352;28;20426;-71
2023/05/03 12:37:36;;;;;;;1.57;1.47;;;18.40;55.80;;;;;;5053177;28;20168;-71
2023/05/03 12:40:03;;;;;;;0.77;0.77;;;18.30;54.90;;;;;;5053144;28;20770;-71
2023/05/03 12:42:29;;;;;;;0.93;0.93;;;18.50;53.10;;;;;;5053121;28;20403;-71
2023/05/03 12:44:59;;;;;;;1.17;1.07;;;18.50;51.70;;;;;;5053044;28;20962;-72
2023/05/03 12:47:28;;;;;;;0.77;0.77;;;18.50;53.30;;;;;;5052947;28;20173;-71
2023/05/03 12:49:54;;;;;;;0.80;0.80;;;18.20;53.90;;;;;;5052971;28;20922;-70
2023/05/03 12:52:21;;;;;;;0.50;0.50;;;18.30;53.50;;;;;;5052799;28;20449;-72